Airfield :
LOGIN :

Register | Disclaimer

   EN    FR    IT 

 










Legend :    VFR   Marginal VFR   IFR   Intensive IFR   Very Intensive IFR
Visi :
Ceiling :
>= 8 km
>= 3000ft
5 to 8 km
1000 to 3000 ft
1500m to 5 km
500 to 1000 ft
800 to 1500m
200 to 500 ft
< 800m
< 200 ft
Symbols :   Thunderstorms  Fog  Heavy snow  Heavy precipitations  Wind > 20 kt
SIGMETs :     Misc.  Thunderstorms  Icing  Turbulence  Mountain Waves  Volcanic Ashes






- Airport Elevation : 129 ft
- IATA code : ZCN


ETHC - Celle

CURRENT METAR :
  • 230820Z 24011KT 9999 FEW030 18/10 Q1013 BLU+

EXPIRED METARs :
  • 230720Z 23008KT 9999 FEW016 17/12 Q1013 BLU+
  • 230620Z 24007KT 9999 FEW160 15/12 Q1013 BLU+
  • 230520Z 22006KT 9999 FEW050 SCT160 14/12 Q1013 BLU+
  • 230420Z 21004KT 9999 SCT150 13/12 Q1012 BLU+
  • 230320Z 23004KT 9999 SCT150 13/12 Q1012 BLU+

TAF TAF ETHC
Valid from the 23 at 08:00 until the 23 at 17:00 UTC


230713Z 2308/2317 25010KT 9999 NSW SCT025



MET'MAP, your aeronautical weather chart ! - Copyright ORBIFLY December 2007 - Disclaimer

ORBIFLY MET'MAP TEAM :

Programming & Development : Alexandra Zaïnal
Original concept : Baudouin d'Aumeries
Technical & hardware support : Manuel Goepfert
Assistance : Marc-Olivier Méhu




SOURCES & CREDITS :

   NOAA